Terminal Aerodrome Forecast
Issued by NWS

Home | Current Version | Previous Version | Text Only | Print | Product List | Glossary On
Versions: 1 2 3 4 5 6 7 8 9 10 11 12 13 14 15 16 17 18 19 20 21 22 23 24 25 26 27 28 29 30 31 32 33 34
803
FTUS45 KGJT 241145
TAFEGE
TAF
KEGE 241145Z 2412/2512 28006KT P6SM SCT020 OVC050
     FM241700 24008KT P6SM BKN040
     FM242100 24007KT P6SM SCT080
     FM250200 VRB04KT P6SM FEW200
      AMD LTD TO CLD VIS AND WIND TIL 241300=

USA.gov is the U.S. government's official web portal to all federal, state and local government web resources and services.